Time;durP1;ratioP1;P1;durP2;ratioP2;P2;SDS_P1;SDS_P2;PMS_P1;PMS_P2;Temp;Humidity;BMP_temperature;BMP_pressure;BME280_temperature;BME280_humidity;BME280_pressure;Samples;Min_cycle;Max_cycle;Signal;HPM_P1;HPM_P2
2023/03/18 00:01:02;;;;;;;6.33;2.33;;;;;;;10.18;50.31;99549.91;5074812;28;20205;-91
2023/03/18 00:03:31;;;;;;;6.40;2.93;;;;;;;10.23;49.58;99557.56;5074888;28;20207;-91
2023/03/18 00:06:12;;;;;;;6.70;2.37;;;;;;;10.27;48.33;99539.00;5074705;28;20238;-92
2023/03/18 00:08:39;;;;;;;5.40;2.43;;;;;;;10.32;47.08;99538.81;5069618;28;20188;-91
2023/03/18 00:11:07;;;;;;;2.80;1.63;;;;;;;10.32;46.56;99546.69;5056300;28;20217;-92
2023/03/18 00:13:33;;;;;;;2.63;1.47;;;;;;;10.27;46.80;99546.88;5059411;28;20601;-92
2023/03/18 00:16:00;;;;;;;5.30;2.13;;;;;;;10.30;46.16;99538.88;5074777;28;20180;-91
2023/03/18 00:18:26;;;;;;;5.53;2.17;;;;;;;10.28;46.50;99532.00;5074467;28;20177;-91
2023/03/18 00:20:52;;;;;;;3.30;1.50;;;;;;;10.30;46.64;99538.88;5074452;28;20192;-91
2023/03/18 00:23:18;;;;;;;3.70;1.90;;;;;;;10.35;46.11;99542.13;5075612;28;20173;-91
2023/03/18 00:25:47;;;;;;;4.43;1.93;;;;;;;10.28;45.88;99530.22;5069178;28;20181;-91
2023/03/18 00:28:13;;;;;;;3.23;1.60;;;;;;;10.27;46.02;99533.75;5054369;28;20184;-91
2023/03/18 00:30:40;;;;;;;3.67;1.80;;;;;;;10.26;45.88;99532.09;5054170;28;20186;-92
2023/03/18 00:33:07;;;;;;;7.80;2.27;;;;;;;10.28;45.85;99524.13;5054193;28;20197;-91
2023/03/18 00:35:33;;;;;;;7.90;3.00;;;;;;;10.26;45.85;99521.59;5054108;28;20650;-91
2023/03/18 00:37:59;;;;;;;4.93;2.50;;;;;;;10.23;46.23;99516.50;5054085;28;20209;-91
2023/03/18 00:40:41;;;;;;;5.37;2.53;;;;;;;10.22;46.37;99520.03;5054167;28;20663;-91
2023/03/18 00:43:08;;;;;;;5.17;2.10;;;;;;;10.13;46.26;99517.84;5054103;28;20173;-91
2023/03/18 00:45:38;;;;;;;6.60;2.73;;;;;;;10.15;46.38;99515.13;5079224;28;20187;-91
2023/03/18 00:48:06;;;;;;;6.17;1.90;;;;;;;10.11;46.29;99509.16;5094189;28;20261;-90
2023/03/18 00:50:34;;;;;;;3.87;1.90;;;;;;;10.07;46.25;99514.59;5091386;28;20187;-91
2023/03/18 00:52:59;;;;;;;3.43;2.00;;;;;;;10.04;46.41;99510.34;5064619;28;20167;-91
2023/03/18 00:55:32;;;;;;;4.70;2.23;;;;;;;10.06;45.99;99497.19;5062705;28;20629;-91
2023/03/18 00:57:57;;;;;;;3.30;1.47;;;;;;;10.03;45.83;99499.94;5053484;28;20199;-91
2023/03/18 01:00:25;;;;;;;3.43;2.00;;;;;;;10.02;45.46;99499.09;5056899;28;20173;-91
2023/03/18 01:02:53;;;;;;;4.17;1.70;;;;;;;9.98;46.17;99494.06;5073007;28;20216;-92
2023/03/18 01:05:19;;;;;;;3.10;1.77;;;;;;;9.97;46.33;99495.81;5055845;28;20197;-91
2023/03/18 01:07:46;;;;;;;3.70;1.80;;;;;;;9.95;46.14;99500.28;5053157;28;20209;-91
2023/03/18 01:10:15;;;;;;;5.03;2.30;;;;;;;9.93;46.99;99494.28;5070232;28;20221;-91
2023/03/18 01:12:47;;;;;;;4.10;2.10;;;;;;;9.95;47.67;99494.19;5073529;28;20234;-91
2023/03/18 01:15:18;;;;;;;3.23;1.97;;;;;;;9.91;48.94;99496.09;5073442;28;20196;-91
2023/03/18 01:17:48;;;;;;;7.63;2.77;;;;;;;9.89;49.77;99490.94;5072775;28;20184;-91
2023/03/18 01:20:18;;;;;;;12.47;3.47;;;;;;;9.87;49.88;99490.16;5073386;28;20246;-90
2023/03/18 01:22:44;;;;;;;17.70;5.10;;;;;;;9.87;50.63;99492.78;5059788;28;20201;-90
2023/03/18 01:25:11;;;;;;;22.63;6.27;;;;;;;9.87;51.06;99491.91;5071883;28;20610;-91
2023/03/18 01:27:39;;;;;;;8.20;3.80;;;;;;;9.84;51.27;99482.44;5073670;28;20249;-91
2023/03/18 01:30:08;;;;;;;9.57;3.77;;;;;;;9.77;51.74;99490.63;5069123;28;20177;-91
2023/03/18 01:32:33;;;;;;;6.47;3.00;;;;;;;9.74;51.73;99490.75;5053976;28;20257;-91
2023/03/18 01:34:59;;;;;;;4.57;1.97;;;;;;;9.70;51.92;99487.41;5052909;28;20217;-91
2023/03/18 01:37:25;;;;;;;5.17;2.43;;;;;;;9.65;51.61;99486.75;5054162;28;20255;-90
2023/03/18 01:39:52;;;;;;;3.70;2.00;;;;;;;9.65;50.79;99488.53;5063603;28;20650;-92
2023/03/18 01:42:19;;;;;;;6.83;2.30;;;;;;;9.59;50.37;99480.94;5073303;28;20209;-91
2023/03/18 01:44:47;;;;;;;3.60;1.73;;;;;;;9.56;50.33;99486.31;5072904;28;20187;-91
2023/03/18 01:47:16;;;;;;;4.10;1.73;;;;;;;9.50;50.77;99491.81;5070975;28;20275;-91
2023/03/18 01:49:46;;;;;;;3.97;1.83;;;;;;;9.43;50.66;99486.00;5072873;28;20306;-91
2023/03/18 01:52:21;;;;;;;3.93;1.83;;;;;;;9.41;50.08;99493.03;5073682;28;20165;-91
2023/03/18 01:55:04;;;;;;;6.33;1.83;;;;;;;9.40;50.58;99491.34;5073161;28;20237;-91
2023/03/18 01:57:31;;;;;;;3.83;1.60;;;;;;;9.38;50.43;99487.09;5052197;28;20169;-91
2023/03/18 01:59:57;;;;;;;5.40;2.03;;;;;;;9.30;50.40;99494.41;5052624;28;20178;-91
2023/03/18 02:02:25;;;;;;;3.57;1.67;;;;;;;9.23;51.02;99499.03;5053436;28;20206;-91
2023/03/18 02:04:53;;;;;;;3.50;1.87;;;;;;;9.22;50.34;99495.56;5052440;28;20181;-91
2023/03/18 02:07:22;;;;;;;3.03;1.43;;;;;;;9.21;50.13;99500.88;5053397;28;20177;-91
2023/03/18 02:09:48;;;;;;;3.23;1.83;;;;;;;9.19;50.21;99497.47;5052610;28;20232;-91
2023/03/18 02:12:20;;;;;;;4.10;1.90;;;;;;;9.12;50.90;99502.09;5052866;28;20248;-90
2023/03/18 02:14:47;;;;;;;4.07;1.70;;;;;;;9.08;50.66;99505.75;5052557;28;20695;-92
2023/03/18 02:17:19;;;;;;;3.63;1.80;;;;;;;8.98;51.49;99507.03;5052345;28;20200;-91
2023/03/18 02:19:53;;;;;;;4.40;2.03;;;;;;;8.97;50.98;99507.09;5053352;28;20677;-92
2023/03/18 02:22:30;;;;;;;4.90;2.43;;;;;;;8.93;51.25;99503.75;5052294;28;20208;-91
2023/03/18 02:24:56;;;;;;;14.43;4.23;;;;;;;8.95;51.31;99499.31;5053404;28;20176;-91
2023/03/18 02:27:28;;;;;;;19.47;5.50;;;;;;;8.96;51.43;99503.63;5052982;28;20521;-92
2023/03/18 02:30:03;;;;;;;13.47;4.87;;;;;;;8.94;51.74;99501.97;5072249;28;20183;-91
2023/03/18 02:32:32;;;;;;;11.77;3.60;;;;;;;8.92;52.61;99501.19;5072313;28;20170;-91
2023/03/18 02:35:02;;;;;;;8.83;3.57;;;;;;;8.88;53.49;99500.50;5072278;28;20185;-91
2023/03/18 02:37:28;;;;;;;6.33;3.07;;;;;;;8.93;53.36;99503.75;5073609;28;20169;-91
2023/03/18 02:39:53;;;;;;;12.00;4.43;;;;;;;8.95;53.83;99499.31;5068159;28;20282;-91
2023/03/18 02:42:30;;;;;;;8.90;3.27;;;;;;;8.85;54.83;99500.59;5072789;28;20213;-91
2023/03/18 02:44:56;;;;;;;12.53;4.27;;;;;;;8.85;54.94;99500.59;5072268;28;20194;-90
2023/03/18 02:47:25;;;;;;;17.27;4.53;;;;;;;8.91;54.82;99502.13;5071333;28;20183;-91
2023/03/18 02:49:51;;;;;;;7.43;3.33;;;;;;;8.78;55.66;99493.91;5072095;28;20183;-91
2023/03/18 02:52:16;;;;;;;13.60;4.67;;;;;;;8.84;55.45;99509.34;5072207;28;20180;-91
2023/03/18 02:54:41;;;;;;;10.73;3.23;;;;;;;8.74;55.60;99504.53;5072010;28;20177;-92
2023/03/18 02:57:07;;;;;;;6.50;3.43;;;;;;;8.70;56.00;99492.50;5062245;28;20184;-91
2023/03/18 02:59:33;;;;;;;7.77;2.50;;;;;;;8.68;55.67;99500.41;5052839;28;20592;-90
2023/03/18 03:01:59;;;;;;;6.30;2.67;;;;;;;8.66;55.81;99507.44;5052774;28;20206;-91
2023/03/18 03:04:25;;;;;;;8.37;3.00;;;;;;;8.69;55.94;99507.34;5069610;28;20189;-91
2023/03/18 03:06:52;;;;;;;5.87;2.80;;;;;;;8.55;56.04;99496.56;5072237;28;20700;-92
2023/03/18 03:09:18;;;;;;;5.87;2.90;;;;;;;8.46;56.51;99504.78;5072579;28;20173;-91
2023/03/18 03:11:45;;;;;;;7.17;3.20;;;;;;;8.42;57.07;99498.78;5075297;28;20285;-91
2023/03/18 03:14:12;;;;;;;7.27;3.13;;;;;;;8.36;57.26;99498.19;5075103;28;20702;-92
2023/03/18 03:16:37;;;;;;;9.70;3.80;;;;;;;8.31;56.99;99500.09;5075600;28;20182;-91
2023/03/18 03:19:04;;;;;;;6.47;3.10;;;;;;;8.27;57.35;99502.00;5076283;28;20208;-91
2023/03/18 03:21:31;;;;;;;9.67;2.40;;;;;;;8.23;57.66;99507.38;5075833;28;20205;-91
2023/03/18 03:23:57;;;;;;;8.13;3.20;;;;;;;8.14;57.73;99507.69;5064953;28;20170;-91
2023/03/18 03:26:22;;;;;;;7.07;3.07;;;;;;;8.10;57.46;99508.72;5055601;28;20547;-90
2023/03/18 03:28:48;;;;;;;7.33;3.00;;;;;;;8.11;58.10;99510.41;5055474;28;20182;-91
2023/03/18 03:31:14;;;;;;;8.03;2.93;;;;;;;8.12;57.60;99507.75;5055405;28;20178;-92
2023/03/18 03:33:42;;;;;;;7.70;3.57;;;;;;;8.11;57.10;99507.78;5061297;28;20188;-91
2023/03/18 03:36:12;;;;;;;11.77;4.53;;;;;;;7.99;57.32;99512.56;5060588;28;20187;-91
2023/03/18 03:38:40;;;;;;;6.10;2.43;;;;;;;7.93;57.69;99504.09;5064847;28;20645;-91
2023/03/18 03:41:09;;;;;;;7.97;3.10;;;;;;;7.90;57.77;99515.50;5064880;28;20232;-90
2023/03/18 03:43:35;;;;;;;5.50;2.77;;;;;;;7.86;58.32;99513.91;5065414;28;20193;-91
2023/03/18 03:46:00;;;;;;;5.33;2.53;;;;;;;7.88;58.47;99517.31;5064070;28;20653;-91
2023/03/18 03:48:26;;;;;;;8.03;3.00;;;;;;;7.91;58.10;99511.97;5063874;28;20177;-91
2023/03/18 03:50:52;;;;;;;4.90;2.63;;;;;;;7.84;58.19;99510.50;5067209;28;20209;-91
2023/03/18 03:53:19;;;;;;;6.23;3.10;;;;;;;7.77;57.69;99510.78;5064022;28;20210;-92
2023/03/18 03:55:44;;;;;;;6.53;2.63;;;;;;;7.80;57.40;99515.88;5060128;28;20189;-91
2023/03/18 03:58:10;;;;;;;5.37;2.97;;;;;;;7.81;57.03;99515.81;5065225;28;20264;-91
2023/03/18 04:00:35;;;;;;;4.67;2.73;;;;;;;7.75;56.93;99516.06;5058816;28;20174;-92
2023/03/18 04:03:01;;;;;;;4.97;2.90;;;;;;;7.66;57.39;99516.38;5062846;28;20540;-91
2023/03/18 04:05:27;;;;;;;4.60;2.47;;;;;;;7.60;57.54;99508.75;5065365;28;20243;-91
2023/03/18 04:07:54;;;;;;;5.33;2.33;;;;;;;7.53;58.04;99509.88;5066615;28;20188;-92
2023/03/18 04:10:21;;;;;;;9.93;3.60;;;;;;;7.43;57.78;99508.47;5060175;28;20186;-92
2023/03/18 04:12:47;;;;;;;20.13;7.30;;;;;;;7.39;58.47;99512.06;5060141;28;20184;-92
2023/03/18 04:15:15;;;;;;;7.73;3.27;;;;;;;7.36;57.83;99514.81;5065670;28;20184;-92
2023/03/18 04:17:40;;;;;;;9.17;3.67;;;;;;;7.32;58.32;99503.63;5062712;28;20177;-91
2023/03/18 04:20:07;;;;;;;9.13;3.67;;;;;;;7.38;58.03;99524.28;5059789;28;20177;-91
2023/03/18 04:22:33;;;;;;;8.03;3.50;;;;;;;7.46;57.79;99507.53;5066670;28;20193;-91
2023/03/18 04:24:59;;;;;;;7.63;2.70;;;;;;;7.47;57.93;99514.44;5064991;28;20186;-91
2023/03/18 04:27:25;;;;;;;4.40;2.63;;;;;;;7.65;57.01;99517.25;5059713;28;20239;-92
2023/03/18 04:29:51;;;;;;;6.03;2.70;;;;;;;7.73;56.66;99517.84;5060444;28;20243;-91
2023/03/18 04:32:16;;;;;;;6.50;2.30;;;;;;;7.63;56.78;99518.22;5063224;28;20174;-91
2023/03/18 04:34:43;;;;;;;5.10;2.80;;;;;;;7.50;57.67;99519.53;5064506;28;20185;-91
2023/03/18 04:37:09;;;;;;;4.30;1.90;;;;;;;7.41;57.80;99531.16;5060167;28;20173;-91
2023/03/18 04:39:34;;;;;;;6.30;2.80;;;;;;;7.39;57.53;99527.72;5059564;28;20189;-90
2023/03/18 04:42:00;;;;;;;3.80;2.47;;;;;;;7.42;57.49;99532.84;5066190;28;20292;-90
2023/03/18 04:44:25;;;;;;;5.20;2.30;;;;;;;7.55;56.89;99515.88;5061692;28;20537;-91
2023/03/18 04:46:52;;;;;;;4.00;1.83;;;;;;;7.57;56.98;99521.91;5066202;28;20536;-92
2023/03/18 04:49:19;;;;;;;5.10;2.20;;;;;;;7.56;56.48;99525.41;5066911;28;20185;-90
2023/03/18 04:51:45;;;;;;;6.10;2.60;;;;;;;7.63;56.66;99526.91;5066798;28;20628;-91
2023/03/18 04:54:12;;;;;;;5.83;1.93;;;;;;;7.77;55.96;99526.44;5065558;28;20193;-91
2023/03/18 04:56:38;;;;;;;4.17;2.03;;;;;;;7.85;56.20;99529.63;5061540;28;20276;-91
2023/03/18 04:59:05;;;;;;;5.33;2.53;;;;;;;7.91;56.33;99538.06;5061828;28;20184;-91
2023/03/18 05:01:30;;;;;;;8.83;4.33;;;;;;;7.95;56.78;99534.47;5064312;28;20280;-92
2023/03/18 05:03:56;;;;;;;10.07;4.60;;;;;;;7.98;56.39;99531.75;5065894;28;20216;-91
2023/03/18 05:06:27;;;;;;;8.10;3.50;;;;;;;7.99;56.67;99533.44;5065241;28;20699;-91
2023/03/18 05:08:53;;;;;;;9.27;4.27;;;;;;;8.03;56.85;99537.66;5067579;28;20173;-92
2023/03/18 05:11:20;;;;;;;7.07;3.90;;;;;;;8.08;56.54;99529.66;5063041;28;20189;-91
2023/03/18 05:13:46;;;;;;;7.63;3.83;;;;;;;8.09;56.69;99527.91;5060972;28;20277;-91
2023/03/18 05:16:12;;;;;;;7.07;3.70;;;;;;;8.12;56.65;99520.81;5065656;28;20180;-92
2023/03/18 05:18:40;;;;;;;8.73;3.47;;;;;;;8.20;56.56;99525.75;5058512;28;20212;-91
2023/03/18 05:21:06;;;;;;;7.17;3.47;;;;;;;8.23;56.87;99529.06;5064201;28;20637;-92
2023/03/18 05:23:32;;;;;;;5.20;2.97;;;;;;;8.29;56.82;99528.03;5064696;28;20178;-93
2023/03/18 05:25:58;;;;;;;6.27;3.23;;;;;;;8.35;56.93;99525.22;5065341;28;20191;-92
2023/03/18 05:28:24;;;;;;;12.93;4.03;;;;;;;8.45;56.77;99523.94;5063918;28;20186;-92
2023/03/18 05:30:49;;;;;;;8.57;4.03;;;;;;;8.56;56.65;99527.00;5066213;28;20186;-92
2023/03/18 05:33:15;;;;;;;12.17;6.43;;;;;;;8.67;56.41;99517.00;5059652;28;20182;-91
2023/03/18 05:35:41;;;;;;;15.37;7.97;;;;;;;8.80;56.61;99520.84;5062437;28;20216;-91
2023/03/18 05:38:06;;;;;;;15.20;7.73;;;;;;;8.95;56.26;99520.22;5064849;28;20174;-92
2023/03/18 05:40:32;;;;;;;10.40;5.97;;;;;;;9.10;55.05;99521.38;5065738;28;20181;-92
2023/03/18 05:42:58;;;;;;;13.93;6.87;;;;;;;9.26;55.12;99519.84;5063354;28;20211;-92
2023/03/18 05:45:23;;;;;;;11.73;6.20;;;;;;;9.70;54.90;99520.56;5065067;28;20174;-92
2023/03/18 05:47:49;;;;;;;15.67;7.60;;;;;;;10.60;54.82;99528.78;5067415;28;20187;-92
2023/03/18 05:50:38;;;;;;;16.00;7.77;;;;;;;11.52;51.23;99516.38;5062615;28;20184;-92
2023/03/18 05:53:05;;;;;;;17.03;8.70;;;;;;;12.28;49.14;99515.06;5058597;28;20222;-91
2023/03/18 05:55:32;;;;;;;16.63;7.50;;;;;;;13.05;47.42;99509.94;5058555;28;20238;-91
2023/03/18 05:57:59;;;;;;;10.07;5.17;;;;;;;13.62;45.41;99508.38;5057395;28;20240;-92
2023/03/18 06:00:28;;;;;;;12.30;5.23;;;;;;;14.13;44.18;99506.09;5060985;28;20627;-91
2023/03/18 06:02:55;;;;;;;12.30;4.67;;;;;;;14.84;43.56;99513.97;5059751;28;20232;-90
2023/03/18 06:05:21;;;;;;;9.63;5.00;;;;;;;15.88;41.12;99493.78;5064140;28;20269;-91
2023/03/18 06:07:47;;;;;;;11.53;5.10;;;;;;;16.89;38.87;99496.31;5060381;28;20179;-90
2023/03/18 06:10:16;;;;;;;9.30;5.37;;;;;;;17.86;36.74;99489.03;5059435;28;20340;-92
2023/03/18 06:12:43;;;;;;;12.20;6.17;;;;;;;18.84;35.37;99491.00;5066309;28;20176;-92
2023/03/18 06:15:10;;;;;;;13.03;5.83;;;;;;;19.82;33.30;99490.72;5059864;28;20644;-91
2023/03/18 06:17:36;;;;;;;7.87;4.33;;;;;;;20.74;32.27;99479.16;5053247;28;20180;-91
2023/03/18 06:20:04;;;;;;;9.33;4.27;;;;;;;21.56;30.73;99482.34;5071901;28;20275;-90
2023/03/18 06:22:31;;;;;;;8.63;3.87;;;;;;;22.02;29.52;99485.13;5072287;28;20208;-91
2023/03/18 06:24:57;;;;;;;9.00;5.03;;;;;;;22.42;29.49;99488.38;5073248;28;20179;-91
2023/03/18 06:27:23;;;;;;;8.13;4.43;;;;;;;22.97;28.45;99486.56;5073034;28;20180;-90
2023/03/18 06:29:49;;;;;;;7.13;4.13;;;;;;;23.84;27.77;99481.38;5073324;28;20199;-90
2023/03/18 06:32:14;;;;;;;6.90;3.83;;;;;;;24.84;26.27;99481.66;5061989;28;20168;-90
2023/03/18 06:34:40;;;;;;;6.13;3.50;;;;;;;25.47;25.17;99476.59;5072058;28;20246;-90
2023/03/18 06:37:06;;;;;;;7.07;3.50;;;;;;;26.01;24.74;99470.53;5071945;28;20177;-90
2023/03/18 06:39:33;;;;;;;5.53;3.53;;;;;;;26.44;24.11;99474.63;5072222;28;20177;-89
2023/03/18 06:41:59;;;;;;;5.70;3.23;;;;;;;26.67;24.00;99478.28;5072820;28;20203;-89
2023/03/18 06:44:25;;;;;;;6.63;3.37;;;;;;;26.63;23.50;99484.16;5074931;28;20177;-89
2023/03/18 06:46:52;;;;;;;4.93;2.83;;;;;;;26.83;22.80;99482.78;5076883;28;20169;-89
2023/03/18 06:49:18;;;;;;;6.77;3.20;;;;;;;27.05;22.52;99483.81;5076898;28;20264;-92
2023/03/18 06:51:43;;;;;;;5.93;3.20;;;;;;;27.09;22.22;99480.59;5076787;28;20208;-89
2023/03/18 06:54:09;;;;;;;7.97;2.73;;;;;;;27.12;22.57;99482.91;5076802;28;20184;-90
2023/03/18 06:56:40;;;;;;;5.70;2.83;;;;;;;26.88;21.15;99484.91;5075855;28;20274;-92
2023/03/18 06:59:08;;;;;;;5.17;2.93;;;;;;;26.60;22.56;99488.03;5077214;28;20161;-92
2023/03/18 07:05:59;;;;;;;;;;;;;;;;;;;;;
2023/03/18 07:08:25;;;;;;;4.87;2.10;;;;;;;22.60;22.22;99494.59;4988962;28;20202;-90
2023/03/18 07:10:54;;;;;;;4.47;2.20;;;;;;;22.66;22.97;99495.88;5047621;28;20292;-90
2023/03/18 07:13:20;;;;;;;4.23;2.30;;;;;;;22.02;24.81;99495.78;5055756;28;20185;-91
2023/03/18 07:15:46;;;;;;;5.80;3.17;;;;;;;21.50;23.45;99493.56;5055901;28;20615;-90
2023/03/18 07:18:13;;;;;;;4.07;2.10;;;;;;;20.47;25.92;99508.19;5056245;28;20266;-90
2023/03/18 07:20:39;;;;;;;6.00;2.60;;;;;;;19.98;25.33;99499.09;5055754;28;20182;-90
2023/03/18 07:23:05;;;;;;;4.00;1.77;;;;;;;18.85;26.66;99514.75;5055476;28;20201;-89
2023/03/18 07:25:33;;;;;;;4.53;1.70;;;;;;;18.57;27.93;99514.44;5055686;28;20185;-90
2023/03/18 07:27:59;;;;;;;5.23;2.53;;;;;;;17.93;28.19;99518.56;5056360;28;20223;-90
2023/03/18 07:30:27;;;;;;;3.93;1.83;;;;;;;17.61;29.24;99518.38;5057227;28;20205;-90
2023/03/18 07:32:54;;;;;;;6.17;2.03;;;;;;;17.32;29.56;99517.84;5055331;28;20203;-90
2023/03/18 07:35:21;;;;;;;3.90;2.13;;;;;;;17.03;30.66;99516.50;5055331;28;20210;-90
2023/03/18 07:37:48;;;;;;;4.77;2.20;;;;;;;16.66;31.11;99520.09;5055438;28;20181;-89
2023/03/18 07:40:13;;;;;;;4.60;2.20;;;;;;;16.49;32.01;99521.25;5055313;28;20648;-90
2023/03/18 07:42:40;;;;;;;4.60;2.07;;;;;;;16.30;32.38;99521.69;5055322;28;20234;-89
2023/03/18 07:45:08;;;;;;;5.90;2.73;;;;;;;15.92;33.48;99527.00;5055580;28;20175;-91
2023/03/18 07:47:35;;;;;;;5.03;2.43;;;;;;;15.69;34.53;99530.34;5055171;28;20517;-90
2023/03/18 07:50:03;;;;;;;6.57;2.50;;;;;;;15.09;34.38;99523.81;5060337;28;20623;-90
2023/03/18 07:52:29;;;;;;;6.83;2.73;;;;;;;15.04;33.66;99526.72;5060666;28;20351;-88
2023/03/18 07:54:56;;;;;;;6.07;2.83;;;;;;;15.04;34.35;99526.72;5054562;28;20526;-89
2023/03/18 07:57:23;;;;;;;4.57;2.77;;;;;;;14.92;34.19;99521.38;5054420;28;20709;-90
2023/03/18 07:59:49;;;;;;;4.83;2.70;;;;;;;15.05;34.99;99523.13;5054875;28;20646;-89
2023/03/18 08:02:15;;;;;;;6.53;2.30;;;;;;;15.22;33.67;99525.56;5054879;28;20205;-88
2023/03/18 08:04:42;;;;;;;5.13;2.57;;;;;;;14.87;33.66;99532.25;5054803;28;20196;-89
2023/03/18 08:07:08;;;;;;;7.10;3.17;;;;;;;14.85;34.03;99539.41;5055959;28;20303;-89
2023/03/18 08:09:36;;;;;;;6.23;2.73;;;;;;;14.26;34.16;99536.97;5064799;28;20621;-88
2023/03/18 08:12:03;;;;;;;5.60;3.03;;;;;;;14.15;34.32;99530.56;5057647;28;20217;-90
2023/03/18 08:14:30;;;;;;;6.07;2.80;;;;;;;13.90;35.32;99546.16;5075133;28;20672;-90
2023/03/18 08:16:56;;;;;;;6.27;2.80;;;;;;;13.41;36.03;99553.47;5074605;28;20188;-90
2023/03/18 08:19:26;;;;;;;12.60;3.20;;;;;;;13.54;36.52;99553.59;5074370;28;20627;-90
2023/03/18 08:21:51;;;;;;;5.73;3.17;;;;;;;13.50;35.22;99557.34;5074355;28;20218;-88
2023/03/18 08:24:18;;;;;;;6.73;3.23;;;;;;;13.07;36.00;99548.41;5062434;28;20263;-89
2023/03/18 08:26:55;;;;;;;6.23;2.93;;;;;;;13.30;35.80;99552.38;5074396;28;20179;-89
2023/03/18 08:29:56;;;;;;;9.83;2.93;;;;;;;13.28;35.03;99541.09;5057889;28;20200;-90
2023/03/18 08:42:32;;;;;;;7.97;2.57;;;;;;;12.99;35.57;99547.97;5034539;28;20325;-91
2023/03/18 08:44:58;;;;;;;7.83;1.90;;;;;;;13.11;35.00;99543.81;5034857;28;20281;-91
2023/03/18 08:47:31;;;;;;;3.77;1.90;;;;;;;13.20;34.18;99543.31;5053699;28;20260;-91
2023/03/18 08:49:57;;;;;;;4.40;1.90;;;;;;;13.30;33.46;99545.31;5053831;28;20249;-91
2023/03/18 08:52:25;;;;;;;5.73;2.03;;;;;;;13.36;33.67;99550.22;5049151;28;20692;-92
2023/03/18 08:55:02;;;;;;;4.97;2.30;;;;;;;13.57;33.87;99539.41;5048164;28;20281;-91
2023/03/18 08:57:56;;;;;;;5.17;1.97;;;;;;;13.59;34.38;99553.31;5050517;28;20207;-91
2023/03/18 09:00:24;;;;;;;4.97;1.73;;;;;;;13.68;33.61;99550.16;5053639;28;20190;-91
2023/03/18 09:02:52;;;;;;;3.63;1.63;;;;;;;13.41;33.64;99553.47;5053252;28;20219;-91
2023/03/18 09:05:20;;;;;;;5.03;1.73;;;;;;;13.07;34.23;99555.47;5036213;28;20258;-93
2023/03/18 09:07:46;;;;;;;7.60;1.77;;;;;;;13.31;35.11;99559.34;5053091;28;20234;-92
2023/03/18 09:10:13;;;;;;;7.30;2.07;;;;;;;13.03;34.50;99567.03;5036476;28;20524;-92
2023/03/18 09:12:43;;;;;;;3.07;1.37;;;;;;;13.01;34.96;99566.28;5036245;28;20265;-92
2023/03/18 09:15:12;;;;;;;5.20;2.20;;;;;;;12.98;35.71;99561.19;5053009;28;20657;-91
2023/03/18 09:17:40;;;;;;;5.17;2.00;;;;;;;12.99;34.44;99561.13;5054421;28;20263;-91
2023/03/18 09:20:12;;;;;;;3.97;1.53;;;;;;;12.89;36.05;99571.28;5054711;28;20171;-92
2023/03/18 09:22:40;;;;;;;5.43;1.57;;;;;;;12.89;34.33;99568.66;5054531;28;20195;-92
2023/03/18 09:25:07;;;;;;;5.00;2.40;;;;;;;12.82;35.67;99566.44;5053364;28;20179;-93
2023/03/18 09:27:34;;;;;;;5.40;2.50;;;;;;;12.84;35.74;99578.59;5056789;28;20232;-92
2023/03/18 09:30:02;;;;;;;9.40;2.20;;;;;;;12.80;35.80;99571.81;5053183;28;20196;-91
2023/03/18 09:32:29;;;;;;;5.97;2.77;;;;;;;12.84;35.95;99573.31;5053285;28;20178;-92
2023/03/18 09:34:56;;;;;;;8.13;3.07;;;;;;;12.75;36.19;99571.22;5053225;28;20208;-92
2023/03/18 09:37:29;;;;;;;7.00;3.30;;;;;;;12.78;36.27;99576.31;5053174;28;20186;-93
2023/03/18 09:39:55;;;;;;;10.97;4.00;;;;;;;12.60;37.85;99569.41;5053213;28;20510;-92
2023/03/18 09:42:46;;;;;;;8.67;4.40;;;;;;;12.62;38.49;99574.56;5053470;28;20356;-92
2023/03/18 09:45:56;;;;;;;8.40;4.20;;;;;;;12.65;38.03;99577.03;5053441;28;20235;-93
2023/03/18 09:48:34;;;;;;;6.50;2.97;;;;;;;12.67;37.42;99576.03;5052731;28;20654;-92
2023/03/18 09:51:09;;;;;;;5.20;2.37;;;;;;;12.49;37.44;99573.53;5053084;28;20173;-92
2023/03/18 09:53:45;;;;;;;5.90;2.53;;;;;;;12.33;37.10;99576.97;5053320;28;20175;-93
2023/03/18 09:56:25;;;;;;;3.93;1.93;;;;;;;12.28;37.59;99581.63;5053076;28;20178;-92
2023/03/18 09:58:58;;;;;;;5.93;2.10;;;;;;;12.26;38.03;99582.66;5052849;28;20201;-92
2023/03/18 10:01:26;;;;;;;3.80;1.80;;;;;;;12.08;37.40;99589.69;5053939;28;20193;-92
2023/03/18 10:04:03;;;;;;;7.30;2.50;;;;;;;11.95;38.30;99595.66;5053555;28;20264;-91
2023/03/18 10:06:30;;;;;;;6.73;2.03;;;;;;;12.00;37.55;99583.97;5052774;28;20178;-91
2023/03/18 10:09:13;;;;;;;7.13;2.50;;;;;;;12.14;37.46;99584.13;5053601;28;20181;-92
2023/03/18 10:11:47;;;;;;;4.47;2.27;;;;;;;11.84;37.89;99600.59;5053080;28;20641;-93
2023/03/18 10:14:53;;;;;;;3.37;1.80;;;;;;;12.04;37.21;99590.78;5053856;28;20170;-93
2023/03/18 10:17:31;;;;;;;4.53;1.93;;;;;;;12.13;37.24;99581.59;5052432;28;20178;-93
2023/03/18 10:20:00;;;;;;;3.37;2.07;;;;;;;12.07;37.13;99579.25;5052138;28;20580;-92
2023/03/18 10:23:00;;;;;;;3.20;1.83;;;;;;;12.28;36.39;99571.13;5052086;28;20204;-93
2023/03/18 10:26:10;;;;;;;3.33;1.63;;;;;;;12.36;36.90;99580.38;5052136;28;20196;-92
2023/03/18 10:28:45;;;;;;;2.93;1.40;;;;;;;12.41;36.29;99579.22;5055137;28;20185;-92
2023/03/18 10:31:19;;;;;;;3.77;1.53;;;;;;;12.50;36.58;99573.44;5052751;28;20196;-92
2023/03/18 10:34:07;;;;;;;4.10;2.17;;;;;;;12.62;37.14;99578.06;5052527;28;20169;-92
2023/03/18 10:36:38;;;;;;;5.80;2.77;;;;;;;12.45;36.55;99575.47;5052282;28;20234;-93
2023/03/18 10:39:14;;;;;;;3.03;1.73;;;;;;;12.48;35.43;99572.69;5052104;28;20170;-92
2023/03/18 10:41:42;;;;;;;3.60;1.80;;;;;;;12.50;36.59;99567.34;5052467;28;20201;-93
2023/03/18 10:44:32;;;;;;;4.47;1.73;;;;;;;12.57;37.17;99568.72;5052378;28;20173;-92
2023/03/18 10:47:07;;;;;;;4.03;2.00;;;;;;;12.63;35.91;99560.50;5052224;28;20174;-93
2023/03/18 10:49:38;;;;;;;3.33;1.80;;;;;;;12.61;36.03;99554.47;5052391;28;20181;-93
2023/03/18 10:52:27;;;;;;;6.97;2.50;;;;;;;12.30;36.31;99560.50;5052322;28;20249;-93
2023/03/18 10:54:53;;;;;;;9.97;2.00;;;;;;;12.47;35.79;99557.84;5052206;28;20206;-93
2023/03/18 10:57:20;;;;;;;3.73;1.70;;;;;;;12.64;35.79;99551.66;5052948;28;20323;-93
2023/03/18 10:59:47;;;;;;;6.20;2.27;;;;;;;12.61;35.30;99550.06;5052677;28;20170;-93
2023/03/18 11:02:21;;;;;;;5.83;2.30;;;;;;;12.52;36.53;99547.94;5052095;28;20300;-93
2023/03/18 11:04:53;;;;;;;4.73;2.10;;;;;;;12.39;35.88;99536.38;5052622;28;20257;-93
2023/03/18 11:07:25;;;;;;;7.63;2.13;;;;;;;12.55;36.35;99539.84;5052772;28;20173;-93
2023/03/18 11:09:51;;;;;;;4.23;2.07;;;;;;;12.79;36.82;99537.66;5052361;28;20173;-93
2023/03/18 11:12:29;;;;;;;9.67;2.23;;;;;;;12.78;35.82;99528.97;5052083;28;20540;-93
2023/03/18 11:14:55;;;;;;;4.20;2.03;;;;;;;12.66;36.48;99534.88;5053597;28;20233;-93
2023/03/18 11:17:32;;;;;;;5.37;2.80;;;;;;;12.63;36.53;99529.78;5052891;28;20175;-92
2023/03/18 11:20:41;;;;;;;4.97;2.57;;;;;;;12.37;35.90;99524.25;5052052;28;20193;-92
2023/03/18 11:23:47;;;;;;;4.93;2.43;;;;;;;12.48;35.80;99527.97;5053125;28;20194;-93
2023/03/18 11:26:46;;;;;;;3.97;1.67;;;;;;;12.74;36.17;99527.41;5051754;28;20274;-93
2023/03/18 11:29:17;;;;;;;6.83;2.50;;;;;;;12.84;36.71;99520.69;5051858;28;20218;-93
2023/03/18 11:32:03;;;;;;;5.03;1.83;;;;;;;13.05;36.03;99513.38;5054364;28;20189;-92
2023/03/18 11:37:27;;;;;;;4.53;1.70;;;;;;;12.81;35.21;99515.59;5059551;28;20692;-92
2023/03/18 11:40:05;;;;;;;4.43;1.70;;;;;;;12.76;35.03;99508.94;5055754;28;20185;-94
2023/03/18 11:42:31;;;;;;;4.13;2.20;;;;;;;12.81;35.57;99515.59;5056318;28;20194;-93
2023/03/18 11:45:16;;;;;;;8.37;1.60;;;;;;;12.61;35.00;99504.50;5055655;28;20559;-92
2023/03/18 11:47:42;;;;;;;6.93;2.03;;;;;;;12.53;35.58;99510.19;5055300;28;20162;-93
2023/03/18 11:50:18;;;;;;;5.33;1.67;;;;;;;12.48;36.63;99506.09;5056614;28;20281;-92
2023/03/18 11:52:48;;;;;;;6.87;1.67;;;;;;;12.62;34.99;99496.53;5055437;28;20540;-93
2023/03/18 11:55:33;;;;;;;5.63;1.67;;;;;;;12.58;35.29;99508.13;5055499;28;20174;-93
2023/03/18 11:58:16;;;;;;;3.67;1.50;;;;;;;12.49;35.43;99502.53;5056314;28;20249;-93
2023/03/18 12:00:58;;;;;;;5.30;2.20;;;;;;;12.91;35.31;99506.28;5056489;28;20243;-93
2023/03/18 12:03:34;;;;;;;2.80;1.30;;;;;;;13.24;34.54;99502.69;5055065;28;20201;-93
2023/03/18 12:06:25;;;;;;;2.57;1.10;;;;;;;13.10;32.90;99508.72;5056115;28;20570;-92